sensor_id;sensor_type;location;lat;lon;timestamp;pressure;altitude;pressure_sealevel;temperature;humidity
54407;BME280;40313;50.308;30.374;2023-01-28T02:41:21;99985.81;;;-4.99;100.00
54407;BME280;40313;50.308;30.374;2023-01-28T02:43:49;99985.84;;;-4.97;100.00
54407;BME280;40313;50.308;30.374;2023-01-28T02:46:34;99987.56;;;-4.95;100.00
54407;BME280;40313;50.308;30.374;2023-01-28T02:49:22;99983.34;;;-4.94;100.00
54407;BME280;40313;50.308;30.374;2023-01-28T02:52:24;99971.47;;;-4.95;100.00
54407;BME280;40313;50.308;30.374;2023-01-28T02:55:14;99984.19;;;-4.95;100.00
54407;BME280;40313;50.308;30.374;2023-01-28T02:57:51;99979.13;;;-4.92;100.00
54407;BME280;40313;50.308;30.374;2023-01-28T03:00:24;99985.91;;;-4.93;100.00
54407;BME280;40313;50.308;30.374;2023-01-28T03:02:57;99978.28;;;-4.91;100.00
54407;BME280;40313;50.308;30.374;2023-01-28T03:05:28;99991.84;;;-4.92;100.00
54407;BME280;40313;50.308;30.374;2023-01-28T03:07:56;99990.16;;;-4.90;100.00
54407;BME280;40313;50.308;30.374;2023-01-28T03:10:25;99988.44;;;-4.94;100.00
54407;BME280;40313;50.308;30.374;2023-01-28T03:12:55;99989.28;;;-4.94;100.00
54407;BME280;40313;50.308;30.374;2023-01-28T03:15:42;99985.03;;;-4.93;100.00
54407;BME280;40313;50.308;30.374;2023-01-28T03:18:31;99986.75;;;-4.92;100.00
54407;BME280;40313;50.308;30.374;2023-01-28T03:21:24;99987.56;;;-4.96;100.00
54407;BME280;40313;50.308;30.374;2023-01-28T03:24:12;99976.50;;;-4.98;100.00
54407;BME280;40313;50.308;30.374;2023-01-28T03:27:03;99986.69;;;-4.98;100.00
54407;BME280;40313;50.308;30.374;2023-01-28T03:29:50;99991.78;;;-4.98;100.00
54407;BME280;40313;50.308;30.374;2023-01-28T03:32:38;99995.97;;;-5.00;100.00
54407;BME280;40313;50.308;30.374;2023-01-28T03:35:28;99983.28;;;-4.97;100.00
54407;BME280;40313;50.308;30.374;2023-01-28T03:38:13;99979.91;;;-4.96;100.00
54407;BME280;40313;50.308;30.374;2023-01-28T03:40:49;99979.09;;;-4.94;100.00
54407;BME280;40313;50.308;30.374;2023-01-28T03:43:16;99981.66;;;-4.92;100.00
54407;BME280;40313;50.308;30.374;2023-01-28T03:45:44;99980.84;;;-4.90;100.00
54407;BME280;40313;50.308;30.374;2023-01-28T03:48:15;99987.69;;;-4.86;100.00
54407;BME280;40313;50.308;30.374;2023-01-28T03:50:42;99985.16;;;-4.84;100.00
54407;BME280;40313;50.308;30.374;2023-01-28T03:53:08;99986.00;;;-4.85;100.00
54407;BME280;40313;50.308;30.374;2023-01-28T03:55:38;99986.91;;;-4.80;100.00
54407;BME280;40313;50.308;30.374;2023-01-28T03:58:05;99991.13;;;-4.82;100.00
54407;BME280;40313;50.308;30.374;2023-01-28T04:00:31;99991.13;;;-4.80;100.00
54407;BME280;40313;50.308;30.374;2023-01-28T04:03:00;99986.03;;;-4.80;100.00
54407;BME280;40313;50.308;30.374;2023-01-28T04:05:26;99988.59;;;-4.79;100.00
54407;BME280;40313;50.308;30.374;2023-01-28T04:07:53;99991.16;;;-4.79;100.00
54407;BME280;40313;50.308;30.374;2023-01-28T04:10:20;99999.69;;;-4.74;100.00
54407;BME280;40313;50.308;30.374;2023-01-28T04:12:47;99997.16;;;-4.74;100.00
54407;BME280;40313;50.308;30.374;2023-01-28T04:15:14;100000.56;;;-4.72;100.00
54407;BME280;40313;50.308;30.374;2023-01-28T04:17:43;99997.97;;;-4.75;100.00
54407;BME280;40313;50.308;30.374;2023-01-28T04:20:12;99997.19;;;-4.71;100.00
54407;BME280;40313;50.308;30.374;2023-01-28T04:22:39;99995.53;;;-4.69;100.00
54407;BME280;40313;50.308;30.374;2023-01-28T04:25:06;99998.94;;;-4.65;100.00
54407;BME280;40313;50.308;30.374;2023-01-28T04:27:32;99996.38;;;-4.66;100.00
54407;BME280;40313;50.308;30.374;2023-01-28T04:29:59;100000.53;;;-4.75;100.00
54407;BME280;40313;50.308;30.374;2023-01-28T04:32:25;99998.00;;;-4.73;100.00
54407;BME280;40313;50.308;30.374;2023-01-28T04:34:52;99999.72;;;-4.72;100.00
54407;BME280;40313;50.308;30.374;2023-01-28T04:37:20;100001.34;;;-4.77;100.00
54407;BME280;40313;50.308;30.374;2023-01-28T04:39:46;100004.75;;;-4.77;100.00
54407;BME280;40313;50.308;30.374;2023-01-28T04:42:13;100008.16;;;-4.75;100.00
54407;BME280;40313;50.308;30.374;2023-01-28T04:44:39;100002.22;;;-4.77;100.00
54407;BME280;40313;50.308;30.374;2023-01-28T09:34:18;99970.78;;;-4.80;100.00
54407;BME280;40313;50.308;30.374;2023-01-28T09:36:44;99956.38;;;-4.78;100.00
54407;BME280;40313;50.308;30.374;2023-01-28T09:39:10;99960.66;;;-4.76;100.00
54407;BME280;40313;50.308;30.374;2023-01-28T09:41:40;99953.06;;;-4.73;100.00
54407;BME280;40313;50.308;30.374;2023-01-28T09:44:16;99957.25;;;-4.76;100.00
54407;BME280;40313;50.308;30.374;2023-01-28T09:46:46;99951.41;;;-4.68;100.00
54407;BME280;40313;50.308;30.374;2023-01-28T09:49:16;99951.47;;;-4.61;100.00
54407;BME280;40313;50.308;30.374;2023-01-28T09:51:46;99945.50;;;-4.63;100.00
54407;BME280;40313;50.308;30.374;2023-01-28T09:54:14;99947.09;;;-4.72;100.00
54407;BME280;40313;50.308;30.374;2023-01-28T09:56:47;99953.72;;;-4.88;100.00
54407;BME280;40313;50.308;30.374;2023-01-28T09:59:17;99946.06;;;-4.89;100.00
54407;BME280;40313;50.308;30.374;2023-01-28T10:01:49;99933.50;;;-4.78;100.00
54407;BME280;40313;50.308;30.374;2023-01-28T10:04:20;99942.72;;;-4.85;100.00
54407;BME280;40313;50.308;30.374;2023-01-28T10:06:55;99951.28;;;-4.80;100.00
54407;BME280;40313;50.308;30.374;2023-01-28T10:09:30;99945.28;;;-4.85;100.00
54407;BME280;40313;50.308;30.374;2023-01-28T10:12:02;99949.59;;;-4.78;100.00
54407;BME280;40313;50.308;30.374;2023-01-28T10:14:33;99945.41;;;-4.74;100.00
54407;BME280;40313;50.308;30.374;2023-01-28T10:17:07;99944.44;;;-4.86;100.00
54407;BME280;40313;50.308;30.374;2023-01-28T10:19:36;99946.13;;;-4.83;100.00
54407;BME280;40313;50.308;30.374;2023-01-28T10:22:10;99937.66;;;-4.85;100.00
54407;BME280;40313;50.308;30.374;2023-01-28T10:24:39;99941.03;;;-4.86;100.00
54407;BME280;40313;50.308;30.374;2023-01-28T10:27:10;99935.09;;;-4.85;100.00
54407;BME280;40313;50.308;30.374;2023-01-28T10:29:38;99939.25;;;-4.93;100.00
54407;BME280;40313;50.308;30.374;2023-01-28T10:32:13;99950.16;;;-5.02;100.00
54407;BME280;40313;50.308;30.374;2023-01-28T10:34:41;99939.16;;;-5.03;100.00
54407;BME280;40313;50.308;30.374;2023-01-28T10:37:11;99936.47;;;-5.13;100.00
54407;BME280;40313;50.308;30.374;2023-01-28T10:39:38;99931.38;;;-5.15;100.00
54407;BME280;40313;50.308;30.374;2023-01-28T10:42:16;99936.63;;;-5.01;100.00
54407;BME280;40313;50.308;30.374;2023-01-28T10:44:46;99917.16;;;-4.96;100.00
54407;BME280;40313;50.308;30.374;2023-01-28T10:47:15;99912.97;;;-4.94;100.00
54407;BME280;40313;50.308;30.374;2023-01-28T10:49:49;99913.72;;;-5.03;100.00
54407;BME280;40313;50.308;30.374;2023-01-28T10:52:19;99909.47;;;-5.02;100.00
54407;BME280;40313;50.308;30.374;2023-01-28T10:54:46;99913.78;;;-4.96;100.00
54407;BME280;40313;50.308;30.374;2023-01-28T10:57:12;99907.94;;;-4.84;100.00
54407;BME280;40313;50.308;30.374;2023-01-28T10:59:41;99899.59;;;-4.76;100.00
54407;BME280;40313;50.308;30.374;2023-01-28T11:02:25;99890.38;;;-4.61;100.00
54407;BME280;40313;50.308;30.374;2023-01-28T11:07:34;99890.50;;;-4.46;100.00
54407;BME280;40313;50.308;30.374;2023-01-28T11:10:01;99883.63;;;-4.56;100.00
54407;BME280;40313;50.308;30.374;2023-01-28T11:12:27;99888.66;;;-4.65;100.00
54407;BME280;40313;50.308;30.374;2023-01-28T11:14:55;99888.66;;;-4.62;100.00
54407;BME280;40313;50.308;30.374;2023-01-28T11:17:22;99883.59;;;-4.59;100.00
54407;BME280;40313;50.308;30.374;2023-01-28T11:19:49;99881.94;;;-4.57;100.00
54407;BME280;40313;50.308;30.374;2023-01-28T11:22:20;99878.50;;;-4.59;100.00
54407;BME280;40313;50.308;30.374;2023-01-28T11:24:49;99874.38;;;-4.46;100.00
54407;BME280;40313;50.308;30.374;2023-01-28T11:27:17;99880.41;;;-4.37;100.00
54407;BME280;40313;50.308;30.374;2023-01-28T11:29:55;99873.59;;;-4.38;100.00
54407;BME280;40313;50.308;30.374;2023-01-28T11:32:24;99874.38;;;-4.46;100.00
54407;BME280;40313;50.308;30.374;2023-01-28T11:34:52;99874.38;;;-4.46;100.00
54407;BME280;40313;50.308;30.374;2023-01-28T11:37:21;99869.41;;;-4.34;100.00
54407;BME280;40313;50.308;30.374;2023-01-28T11:39:49;99877.03;;;-4.36;100.00
54407;BME280;40313;50.308;30.374;2023-01-28T11:42:25;99873.69;;;-4.30;100.00
54407;BME280;40313;50.308;30.374;2023-01-28T11:44:51;99869.44;;;-4.29;100.00
54407;BME280;40313;50.308;30.374;2023-01-28T11:47:21;99863.56;;;-4.19;100.00
54407;BME280;40313;50.308;30.374;2023-01-28T11:50:04;99867.00;;;-4.15;100.00
54407;BME280;40313;50.308;30.374;2023-01-28T11:52:43;99867.84;;;-4.10;100.00
54407;BME280;40313;50.308;30.374;2023-01-28T11:55:20;99863.59;;;-4.13;100.00
54407;BME280;40313;50.308;30.374;2023-01-28T11:57:50;99861.81;;;-4.26;100.00
54407;BME280;40313;50.308;30.374;2023-01-28T12:00:36;99865.13;;;-4.40;100.00
54407;BME280;40313;50.308;30.374;2023-01-28T12:03:09;99859.19;;;-4.37;100.00
54407;BME280;40313;50.308;30.374;2023-01-28T12:05:45;99855.78;;;-4.36;100.00
54407;BME280;40313;50.308;30.374;2023-01-28T12:08:15;99854.84;;;-4.46;100.00
54407;BME280;40313;50.308;30.374;2023-01-28T12:10:47;99853.16;;;-4.47;100.00
54407;BME280;40313;50.308;30.374;2023-01-28T12:13:23;99858.25;;;-4.48;100.00
54407;BME280;40313;50.308;30.374;2023-01-28T12:16:03;99849.75;;;-4.46;100.00
54407;BME280;40313;50.308;30.374;2023-01-28T12:18:41;99854.03;;;-4.42;100.00
54407;BME280;40313;50.308;30.374;2023-01-28T12:21:13;99853.25;;;-4.36;100.00
54407;BME280;40313;50.308;30.374;2023-01-28T12:23:46;99854.16;;;-4.26;100.00
54407;BME280;40313;50.308;30.374;2023-01-28T12:26:20;99846.56;;;-4.22;100.00
54407;BME280;40313;50.308;30.374;2023-01-28T12:28:51;99843.19;;;-4.19;100.00
54407;BME280;40313;50.308;30.374;2023-01-28T12:31:34;99836.34;;;-4.26;100.00
54407;BME280;40313;50.308;30.374;2023-01-28T12:34:12;99839.72;;;-4.27;100.00
54407;BME280;40313;50.308;30.374;2023-01-28T12:36:46;99838.03;;;-4.28;100.00
54407;BME280;40313;50.308;30.374;2023-01-28T12:39:19;99832.09;;;-4.26;100.00
54407;BME280;40313;50.308;30.374;2023-01-28T12:42:02;99836.34;;;-4.23;100.00
54407;BME280;40313;50.308;30.374;2023-01-28T12:44:30;99835.53;;;-4.19;100.00
54407;BME280;40313;50.308;30.374;2023-01-28T12:46:59;99842.34;;;-4.15;100.00
54407;BME280;40313;50.308;30.374;2023-01-28T12:49:28;99835.59;;;-4.11;100.00
54407;BME280;40313;50.308;30.374;2023-01-28T12:51:58;99829.63;;;-4.12;100.00
54407;BME280;40313;50.308;30.374;2023-01-28T12:54:28;99832.25;;;-4.06;100.00
54407;BME280;40313;50.308;30.374;2023-01-28T12:56:57;99834.81;;;-4.00;100.00
54407;BME280;40313;50.308;30.374;2023-01-28T12:59:26;99828.91;;;-3.97;100.00
54407;BME280;40313;50.308;30.374;2023-01-28T13:01:56;99831.47;;;-3.94;100.00
54407;BME280;40313;50.308;30.374;2023-01-28T13:04:28;99835.72;;;-3.91;100.00
54407;BME280;40313;50.308;30.374;2023-01-28T13:06:57;99824.66;;;-3.93;100.00
54407;BME280;40313;50.308;30.374;2023-01-28T13:09:25;99818.72;;;-3.92;100.00
54407;BME280;40313;50.308;30.374;2023-01-28T13:11:55;99825.53;;;-3.93;100.00
54407;BME280;40313;50.308;30.374;2023-01-28T13:14:24;99824.66;;;-3.89;100.00
54407;BME280;40313;50.308;30.374;2023-01-28T13:16:52;99817.91;;;-3.88;100.00
54407;BME280;40313;50.308;30.374;2023-01-28T13:19:22;99823.84;;;-3.86;100.00
54407;BME280;40313;50.308;30.374;2023-01-28T13:21:49;99821.28;;;-3.85;100.00
54407;BME280;40313;50.308;30.374;2023-01-28T13:24:18;99830.66;;;-3.82;100.00
54407;BME280;40313;50.308;30.374;2023-01-28T13:26:46;99823.84;;;-3.82;100.00
54407;BME280;40313;50.308;30.374;2023-01-28T13:29:20;99831.53;;;-3.78;100.00
54407;BME280;40313;50.308;30.374;2023-01-28T13:31:49;99828.13;;;-3.79;100.00
54407;BME280;40313;50.308;30.374;2023-01-28T13:34:26;99833.22;;;-3.82;100.00
54407;BME280;40313;50.308;30.374;2023-01-28T13:36:53;99834.91;;;-3.81;100.00
54407;BME280;40313;50.308;30.374;2023-01-28T13:39:21;99829.81;;;-3.84;100.00
54407;BME280;40313;50.308;30.374;2023-01-28T13:41:49;99828.94;;;-3.89;100.00
54407;BME280;40313;50.308;30.374;2023-01-28T13:44:16;99827.19;;;-3.95;100.00
54407;BME280;40313;50.308;30.374;2023-01-28T13:46:43;99830.56;;;-3.96;100.00
54407;BME280;40313;50.308;30.374;2023-01-28T13:49:12;99833.13;;;-3.99;100.00
54407;BME280;40313;50.308;30.374;2023-01-28T13:51:44;99826.28;;;-4.02;100.00
54407;BME280;40313;50.308;30.374;2023-01-28T13:54:14;99834.81;;;-4.03;100.00
54407;BME280;40313;50.308;30.374;2023-01-28T13:56:48;99831.38;;;-4.05;100.00
54407;BME280;40313;50.308;30.374;2023-01-28T13:59:24;99839.91;;;-4.03;100.00
54407;BME280;40313;50.308;30.374;2023-01-28T14:02:09;99842.44;;;-4.03;100.00
54407;BME280;40313;50.308;30.374;2023-01-28T14:07:33;99838.16;;;-4.11;100.00
54407;BME280;40313;50.308;30.374;2023-01-28T14:10:11;99828.78;;;-4.17;100.00
54407;BME280;40313;50.308;30.374;2023-01-28T14:12:49;99827.88;;;-4.21;100.00
54407;BME280;40313;50.308;30.374;2023-01-28T18:30:45;99888.69;;;-4.59;100.00
54407;BME280;40313;50.308;30.374;2023-01-28T18:33:11;99889.50;;;-4.65;100.00
54407;BME280;40313;50.308;30.374;2023-01-28T18:35:40;99892.00;;;-4.70;100.00
54407;BME280;40313;50.308;30.374;2023-01-28T18:38:07;99891.06;;;-4.78;100.00
54407;BME280;40313;50.308;30.374;2023-01-28T18:40:33;99905.53;;;-4.74;100.00
54407;BME280;40313;50.308;30.374;2023-01-28T18:43:00;99908.88;;;-4.76;100.00
54407;BME280;40313;50.308;30.374;2023-01-28T18:45:27;99911.44;;;-4.75;100.00
54407;BME280;40313;50.308;30.374;2023-01-28T18:47:55;99914.03;;;-4.70;100.00
54407;BME280;40313;50.308;30.374;2023-01-28T18:50:21;99909.84;;;-4.66;100.00
54407;BME280;40313;50.308;30.374;2023-01-28T18:52:48;99907.28;;;-4.70;100.00
54407;BME280;40313;50.308;30.374;2023-01-28T18:55:14;99908.13;;;-4.66;100.00
54407;BME280;40313;50.308;30.374;2023-01-28T18:57:41;99904.72;;;-4.70;100.00
54407;BME280;40313;50.308;30.374;2023-01-28T19:00:08;99905.56;;;-4.71;100.00
54407;BME280;40313;50.308;30.374;2023-01-28T19:02:35;99910.59;;;-4.75;100.00
54407;BME280;40313;50.308;30.374;2023-01-28T19:05:03;99908.00;;;-4.81;100.00
54407;BME280;40313;50.308;30.374;2023-01-28T19:07:30;99914.81;;;-4.77;100.00
54407;BME280;40313;50.308;30.374;2023-01-28T19:09:57;99911.44;;;-4.76;100.00
54407;BME280;40313;50.308;30.374;2023-01-28T21:17:18;99906.81;;;-4.27;100.00
54407;BME280;40313;50.308;30.374;2023-01-28T21:19:44;99908.47;;;-4.30;100.00
54407;BME280;40313;50.308;30.374;2023-01-28T21:22:11;99906.75;;;-4.33;100.00
54407;BME280;40313;50.308;30.374;2023-01-28T21:24:37;99908.41;;;-4.40;100.00
54407;BME280;40313;50.308;30.374;2023-01-28T21:27:04;99904.09;;;-4.45;100.00
54407;BME280;40313;50.308;30.374;2023-01-28T21:29:30;99904.00;;;-4.53;100.00
54407;BME280;40313;50.308;30.374;2023-01-28T21:31:56;99915.03;;;-4.57;100.00
54407;BME280;40313;50.308;30.374;2023-01-28T21:34:24;99911.59;;;-4.59;100.00
54407;BME280;40313;50.308;30.374;2023-01-28T21:36:50;99907.28;;;-4.66;100.00
54407;BME280;40313;50.308;30.374;2023-01-28T21:39:17;99925.13;;;-4.66;100.00
54407;BME280;40313;50.308;30.374;2023-01-28T21:41:43;99929.34;;;-4.69;100.00
54407;BME280;40313;50.308;30.374;2023-01-28T21:44:09;99925.06;;;-4.73;100.00
54407;BME280;40313;50.308;30.374;2023-01-28T21:46:36;99927.53;;;-4.79;100.00
54407;BME280;40313;50.308;30.374;2023-01-28T21:49:03;99923.31;;;-4.78;100.00
54407;BME280;40313;50.308;30.374;2023-01-28T21:51:31;99932.59;;;-4.82;100.00
54407;BME280;40313;50.308;30.374;2023-01-28T21:54:02;99928.31;;;-4.84;100.00
54407;BME280;40313;50.308;30.374;2023-01-28T21:56:28;99939.31;;;-4.89;100.00
54407;BME280;40313;50.308;30.374;2023-01-28T21:58:55;99929.94;;;-4.93;100.00
54407;BME280;40313;50.308;30.374;2023-01-28T22:01:38;99932.38;;;-4.99;100.00
54407;BME280;40313;50.308;30.374;2023-01-28T22:05:53;99935.63;;;-5.14;100.00
54407;BME280;40313;50.308;30.374;2023-01-28T22:08:20;99927.88;;;-5.22;100.00
54407;BME280;40313;50.308;30.374;2023-01-28T22:10:46;99927.88;;;-5.23;100.00
54407;BME280;40313;50.308;30.374;2023-01-28T22:13:15;99921.88;;;-5.28;100.00
54407;BME280;40313;50.308;30.374;2023-01-28T22:15:42;99928.63;;;-5.30;100.00
54407;BME280;40313;50.308;30.374;2023-01-28T22:18:08;99930.31;;;-5.32;100.00
54407;BME280;40313;50.308;30.374;2023-01-28T22:20:34;99920.09;;;-5.35;100.00
54407;BME280;40313;50.308;30.374;2023-01-28T22:23:02;99916.66;;;-5.39;100.00
54407;BME280;40313;50.308;30.374;2023-01-28T22:25:28;99923.41;;;-5.43;100.00
54407;BME280;40313;50.308;30.374;2023-01-28T22:27:55;99909.78;;;-5.45;100.00
54407;BME280;40313;50.308;30.374;2023-01-28T22:30:21;99912.22;;;-5.54;100.00
54407;BME280;40313;50.308;30.374;2023-01-28T22:32:48;99912.09;;;-5.62;100.00
54407;BME280;40313;50.308;30.374;2023-01-28T22:35:15;99912.94;;;-5.64;100.00
54407;BME280;40313;50.308;30.374;2023-01-28T22:37:41;99916.28;;;-5.68;100.00
54407;BME280;40313;50.308;30.374;2023-01-28T22:40:11;99926.41;;;-5.71;100.00
54407;BME280;40313;50.308;30.374;2023-01-28T22:42:37;99915.38;;;-5.70;100.00
54407;BME280;40313;50.308;30.374;2023-01-28T22:45:05;99917.03;;;-5.74;100.00
54407;BME280;40313;50.308;30.374;2023-01-28T22:47:31;99917.03;;;-5.74;100.00
54407;BME280;40313;50.308;30.374;2023-01-28T22:49:58;99911.06;;;-5.76;100.00
54407;BME280;40313;50.308;30.374;2023-01-28T22:52:24;99907.66;;;-5.80;100.00
54407;BME280;40313;50.308;30.374;2023-01-28T22:54:51;99917.00;;;-5.77;100.00
54407;BME280;40313;50.308;30.374;2023-01-28T22:57:19;99910.19;;;-5.78;100.00
54407;BME280;40313;50.308;30.374;2023-01-28T22:59:45;99909.31;;;-5.79;100.00
54407;BME280;40313;50.308;30.374;2023-01-28T23:04:47;99901.63;;;-5.85;100.00
54407;BME280;40313;50.308;30.374;2023-01-28T23:07:15;99899.88;;;-5.89;100.00
54407;BME280;40313;50.308;30.374;2023-01-28T23:09:41;99906.63;;;-5.91;100.00
54407;BME280;40313;50.308;30.374;2023-01-28T23:12:09;99894.69;;;-5.97;100.00
54407;BME280;40313;50.308;30.374;2023-01-28T23:14:39;99898.94;;;-5.97;100.00
54407;BME280;40313;50.308;30.374;2023-01-28T23:17:23;99902.31;;;-5.97;100.00
54407;BME280;40313;50.308;30.374;2023-01-28T23:20:08;99890.44;;;-5.99;100.00
54407;BME280;40313;50.308;30.374;2023-01-28T23:22:53;99899.78;;;-5.97;100.00
54407;BME280;40313;50.308;30.374;2023-01-28T23:25:37;99897.25;;;-5.98;100.00
54407;BME280;40313;50.308;30.374;2023-01-28T23:28:03;99892.97;;;-5.99;100.00
54407;BME280;40313;50.308;30.374;2023-01-28T23:30:31;99888.69;;;-6.03;100.00
54407;BME280;40313;50.308;30.374;2023-01-28T23:32:58;99886.09;;;-6.06;100.00
54407;BME280;40313;50.308;30.374;2023-01-28T23:35:26;99886.03;;;-6.13;100.00
54407;BME280;40313;50.308;30.374;2023-01-28T23:37:55;99890.16;;;-6.18;100.00
54407;BME280;40313;50.308;30.374;2023-01-28T23:40:21;99894.34;;;-6.21;100.00
54407;BME280;40313;50.308;30.374;2023-01-28T23:42:48;99900.28;;;-6.21;100.00
54407;BME280;40313;50.308;30.374;2023-01-28T23:45:15;99894.28;;;-6.25;100.00
54407;BME280;40313;50.308;30.374;2023-01-28T23:47:43;99885.81;;;-6.25;100.00
54407;BME280;40313;50.308;30.374;2023-01-28T23:50:10;99890.84;;;-6.28;100.00
54407;BME280;40313;50.308;30.374;2023-01-28T23:52:37;99889.06;;;-6.34;100.00
54407;BME280;40313;50.308;30.374;2023-01-28T23:55:06;99888.16;;;-6.37;100.00
54407;BME280;40313;50.308;30.374;2023-01-28T23:57:34;99892.31;;;-6.43;100.00
